sensor_id;sensor_type;location;lat;lon;timestamp;temperature;humidity
52787;DHT22;38661;53.152;5.846;2022-12-29T00:01:29;9.40;97.90
52787;DHT22;38661;53.152;5.846;2022-12-29T00:03:55;9.40;97.90
52787;DHT22;38661;53.152;5.846;2022-12-29T00:06:21;9.40;97.80
52787;DHT22;38661;53.152;5.846;2022-12-29T00:08:46;9.40;97.80
52787;DHT22;38661;53.152;5.846;2022-12-29T00:11:21;9.40;97.90
52787;DHT22;38661;53.152;5.846;2022-12-29T00:13:47;9.40;98.00
52787;DHT22;38661;53.152;5.846;2022-12-29T00:16:33;9.40;98.00
52787;DHT22;38661;53.152;5.846;2022-12-29T00:18:59;9.40;98.00
52787;DHT22;38661;53.152;5.846;2022-12-29T00:21:25;9.40;98.10
52787;DHT22;38661;53.152;5.846;2022-12-29T00:24:18;9.30;98.10
52787;DHT22;38661;53.152;5.846;2022-12-29T00:26:58;9.30;98.10
52787;DHT22;38661;53.152;5.846;2022-12-29T00:29:48;9.30;98.00
52787;DHT22;38661;53.152;5.846;2022-12-29T00:32:33;9.30;98.00
52787;DHT22;38661;53.152;5.846;2022-12-29T00:35:27;9.40;97.90
52787;DHT22;38661;53.152;5.846;2022-12-29T00:37:54;9.30;97.80
52787;DHT22;38661;53.152;5.846;2022-12-29T00:40:39;9.30;97.80
52787;DHT22;38661;53.152;5.846;2022-12-29T00:43:25;9.30;97.80
52787;DHT22;38661;53.152;5.846;2022-12-29T00:46:09;9.30;97.80
52787;DHT22;38661;53.152;5.846;2022-12-29T00:48:35;9.20;97.80
52787;DHT22;38661;53.152;5.846;2022-12-29T00:51:19;9.20;97.80
52787;DHT22;38661;53.152;5.846;2022-12-29T00:53:45;9.30;97.80
52787;DHT22;38661;53.152;5.846;2022-12-29T00:56:10;9.30;97.70
52787;DHT22;38661;53.152;5.846;2022-12-29T00:58:36;9.30;97.80
52787;DHT22;38661;53.152;5.846;2022-12-29T01:01:03;9.30;97.70
52787;DHT22;38661;53.152;5.846;2022-12-29T01:03:29;9.30;97.60
52787;DHT22;38661;53.152;5.846;2022-12-29T01:05:55;9.30;97.60
52787;DHT22;38661;53.152;5.846;2022-12-29T01:08:21;9.30;97.60
52787;DHT22;38661;53.152;5.846;2022-12-29T01:10:46;9.30;97.60
52787;DHT22;38661;53.152;5.846;2022-12-29T01:13:12;9.30;97.60
52787;DHT22;38661;53.152;5.846;2022-12-29T01:15:37;9.30;97.50
52787;DHT22;38661;53.152;5.846;2022-12-29T01:18:03;9.40;97.50
52787;DHT22;38661;53.152;5.846;2022-12-29T01:20:29;9.40;97.50
52787;DHT22;38661;53.152;5.846;2022-12-29T01:22:54;9.40;97.50
52787;DHT22;38661;53.152;5.846;2022-12-29T01:25:20;9.40;97.60
52787;DHT22;38661;53.152;5.846;2022-12-29T01:27:46;9.50;97.60
52787;DHT22;38661;53.152;5.846;2022-12-29T01:30:12;9.50;97.50
52787;DHT22;38661;53.152;5.846;2022-12-29T01:32:37;9.50;97.70
52787;DHT22;38661;53.152;5.846;2022-12-29T01:35:03;9.50;97.70
52787;DHT22;38661;53.152;5.846;2022-12-29T01:37:29;9.50;97.70
52787;DHT22;38661;53.152;5.846;2022-12-29T01:39:55;9.50;97.70
52787;DHT22;38661;53.152;5.846;2022-12-29T01:42:24;9.50;97.80
52787;DHT22;38661;53.152;5.846;2022-12-29T01:44:57;9.50;97.90
52787;DHT22;38661;53.152;5.846;2022-12-29T01:49:53;9.50;97.90
52787;DHT22;38661;53.152;5.846;2022-12-29T01:52:19;9.50;98.00
52787;DHT22;38661;53.152;5.846;2022-12-29T01:54:51;9.50;97.80
52787;DHT22;38661;53.152;5.846;2022-12-29T01:57:26;9.40;97.90
52787;DHT22;38661;53.152;5.846;2022-12-29T02:00:00;9.40;98.30
52787;DHT22;38661;53.152;5.846;2022-12-29T02:02:27;9.30;98.10
52787;DHT22;38661;53.152;5.846;2022-12-29T02:04:53;9.30;98.10
52787;DHT22;38661;53.152;5.846;2022-12-29T02:07:23;9.40;98.00
52787;DHT22;38661;53.152;5.846;2022-12-29T02:09:51;9.40;98.00
52787;DHT22;38661;53.152;5.846;2022-12-29T02:12:19;9.40;98.30
52787;DHT22;38661;53.152;5.846;2022-12-29T02:14:46;9.40;98.10
52787;DHT22;38661;53.152;5.846;2022-12-29T02:20:36;9.60;98.60
52787;DHT22;38661;53.152;5.846;2022-12-29T02:23:40;9.60;97.80
52787;DHT22;38661;53.152;5.846;2022-12-29T02:26:30;9.60;97.40
52787;DHT22;38661;53.152;5.846;2022-12-29T02:32:38;9.40;96.90
52787;DHT22;38661;53.152;5.846;2022-12-29T02:35:36;9.50;96.40
52787;DHT22;38661;53.152;5.846;2022-12-29T02:40:51;9.50;96.20
52787;DHT22;38661;53.152;5.846;2022-12-29T02:46:03;9.50;96.30
52787;DHT22;38661;53.152;5.846;2022-12-29T02:48:36;9.50;96.30
52787;DHT22;38661;53.152;5.846;2022-12-29T02:51:10;9.40;96.20
52787;DHT22;38661;53.152;5.846;2022-12-29T02:53:39;9.40;96.40
52787;DHT22;38661;53.152;5.846;2022-12-29T02:56:23;9.30;96.60
52787;DHT22;38661;53.152;5.846;2022-12-29T02:58:49;9.30;96.70
52787;DHT22;38661;53.152;5.846;2022-12-29T03:16:55;9.10;97.20
52787;DHT22;38661;53.152;5.846;2022-12-29T03:19:29;9.10;97.30
52787;DHT22;38661;53.152;5.846;2022-12-29T03:22:08;9.10;97.10
52787;DHT22;38661;53.152;5.846;2022-12-29T03:25:16;9.10;97.00
52787;DHT22;38661;53.152;5.846;2022-12-29T03:27:49;9.10;97.10
52787;DHT22;38661;53.152;5.846;2022-12-29T03:30:16;9.10;96.80
52787;DHT22;38661;53.152;5.846;2022-12-29T03:32:50;9.10;96.70
52787;DHT22;38661;53.152;5.846;2022-12-29T03:35:20;9.10;96.90
52787;DHT22;38661;53.152;5.846;2022-12-29T03:38:05;9.10;96.70
52787;DHT22;38661;53.152;5.846;2022-12-29T03:40:32;9.10;96.50
52787;DHT22;38661;53.152;5.846;2022-12-29T03:42:59;9.00;96.40
52787;DHT22;38661;53.152;5.846;2022-12-29T03:45:25;9.00;96.50
52787;DHT22;38661;53.152;5.846;2022-12-29T03:47:53;8.90;96.50
52787;DHT22;38661;53.152;5.846;2022-12-29T03:50:18;8.90;96.40
52787;DHT22;38661;53.152;5.846;2022-12-29T03:52:44;8.90;96.50
52787;DHT22;38661;53.152;5.846;2022-12-29T03:55:10;8.90;96.50
52787;DHT22;38661;53.152;5.846;2022-12-29T03:57:36;8.90;95.90
52787;DHT22;38661;53.152;5.846;2022-12-29T04:00:04;8.80;95.80
52787;DHT22;38661;53.152;5.846;2022-12-29T04:02:30;8.80;96.10
52787;DHT22;38661;53.152;5.846;2022-12-29T04:04:56;8.70;96.00
52787;DHT22;38661;53.152;5.846;2022-12-29T04:07:21;8.60;96.00
52787;DHT22;38661;53.152;5.846;2022-12-29T04:09:47;8.60;96.20
52787;DHT22;38661;53.152;5.846;2022-12-29T04:12:13;8.60;96.30
52787;DHT22;38661;53.152;5.846;2022-12-29T04:14:40;8.50;96.20
52787;DHT22;38661;53.152;5.846;2022-12-29T04:17:06;8.50;96.10
52787;DHT22;38661;53.152;5.846;2022-12-29T04:19:31;8.50;95.90
52787;DHT22;38661;53.152;5.846;2022-12-29T04:21:57;8.50;96.10
52787;DHT22;38661;53.152;5.846;2022-12-29T04:24:23;8.50;95.90
52787;DHT22;38661;53.152;5.846;2022-12-29T04:26:49;8.60;95.60
52787;DHT22;38661;53.152;5.846;2022-12-29T04:29:14;8.60;94.90
52787;DHT22;38661;53.152;5.846;2022-12-29T04:31:40;8.60;95.20
52787;DHT22;38661;53.152;5.846;2022-12-29T04:34:06;8.70;94.90
52787;DHT22;38661;53.152;5.846;2022-12-29T04:36:31;8.70;94.80
52787;DHT22;38661;53.152;5.846;2022-12-29T04:38:57;8.70;94.40
52787;DHT22;38661;53.152;5.846;2022-12-29T04:41:23;8.70;94.30
52787;DHT22;38661;53.152;5.846;2022-12-29T04:43:48;8.80;94.30
52787;DHT22;38661;53.152;5.846;2022-12-29T04:46:14;8.80;94.30
52787;DHT22;38661;53.152;5.846;2022-12-29T04:48:40;8.80;94.10
52787;DHT22;38661;53.152;5.846;2022-12-29T04:51:05;8.90;93.90
52787;DHT22;38661;53.152;5.846;2022-12-29T04:53:31;8.90;94.00
52787;DHT22;38661;53.152;5.846;2022-12-29T04:55:57;8.90;93.80
52787;DHT22;38661;53.152;5.846;2022-12-29T04:58:22;9.00;93.60
52787;DHT22;38661;53.152;5.846;2022-12-29T05:00:48;9.00;93.70
52787;DHT22;38661;53.152;5.846;2022-12-29T05:03:14;9.00;93.60
52787;DHT22;38661;53.152;5.846;2022-12-29T05:05:40;9.00;93.60
52787;DHT22;38661;53.152;5.846;2022-12-29T05:08:06;9.10;93.50
52787;DHT22;38661;53.152;5.846;2022-12-29T05:10:32;9.10;93.60
52787;DHT22;38661;53.152;5.846;2022-12-29T05:12:58;9.10;93.60
52787;DHT22;38661;53.152;5.846;2022-12-29T05:15:24;9.10;93.50
52787;DHT22;38661;53.152;5.846;2022-12-29T05:17:49;9.10;93.40
52787;DHT22;38661;53.152;5.846;2022-12-29T05:20:15;9.10;93.60
52787;DHT22;38661;53.152;5.846;2022-12-29T05:22:41;9.10;93.40
52787;DHT22;38661;53.152;5.846;2022-12-29T05:25:07;9.10;93.40
52787;DHT22;38661;53.152;5.846;2022-12-29T05:27:33;9.10;93.50
52787;DHT22;38661;53.152;5.846;2022-12-29T05:29:58;9.10;93.50
52787;DHT22;38661;53.152;5.846;2022-12-29T05:32:24;9.00;93.40
52787;DHT22;38661;53.152;5.846;2022-12-29T05:34:50;9.00;93.60
52787;DHT22;38661;53.152;5.846;2022-12-29T05:37:15;9.00;93.60
52787;DHT22;38661;53.152;5.846;2022-12-29T05:39:41;9.00;93.30
52787;DHT22;38661;53.152;5.846;2022-12-29T05:42:07;8.90;93.30
52787;DHT22;38661;53.152;5.846;2022-12-29T05:44:32;8.90;93.40
52787;DHT22;38661;53.152;5.846;2022-12-29T05:46:58;8.80;93.50
52787;DHT22;38661;53.152;5.846;2022-12-29T05:49:24;8.90;93.40
52787;DHT22;38661;53.152;5.846;2022-12-29T05:51:49;8.90;93.50
52787;DHT22;38661;53.152;5.846;2022-12-29T05:54:15;9.00;93.20
52787;DHT22;38661;53.152;5.846;2022-12-29T05:56:41;9.00;93.00
52787;DHT22;38661;53.152;5.846;2022-12-29T05:59:06;9.00;93.10
52787;DHT22;38661;53.152;5.846;2022-12-29T06:01:32;9.00;93.00
52787;DHT22;38661;53.152;5.846;2022-12-29T06:04:00;9.00;92.90
52787;DHT22;38661;53.152;5.846;2022-12-29T06:06:25;9.00;92.60
52787;DHT22;38661;53.152;5.846;2022-12-29T06:08:51;9.00;92.50
52787;DHT22;38661;53.152;5.846;2022-12-29T06:11:17;9.00;92.40
52787;DHT22;38661;53.152;5.846;2022-12-29T06:13:42;9.00;92.40
52787;DHT22;38661;53.152;5.846;2022-12-29T06:16:08;8.90;92.30
52787;DHT22;38661;53.152;5.846;2022-12-29T06:18:34;8.80;92.30
52787;DHT22;38661;53.152;5.846;2022-12-29T06:21:01;8.90;92.10
52787;DHT22;38661;53.152;5.846;2022-12-29T06:23:27;8.90;92.00
52787;DHT22;38661;53.152;5.846;2022-12-29T06:25:53;8.90;92.20
52787;DHT22;38661;53.152;5.846;2022-12-29T06:28:19;8.80;92.20
52787;DHT22;38661;53.152;5.846;2022-12-29T06:30:45;8.80;92.40
52787;DHT22;38661;53.152;5.846;2022-12-29T06:33:12;8.80;92.30
52787;DHT22;38661;53.152;5.846;2022-12-29T06:35:38;8.90;92.30
52787;DHT22;38661;53.152;5.846;2022-12-29T06:38:03;8.80;92.30
52787;DHT22;38661;53.152;5.846;2022-12-29T06:40:29;8.90;92.30
52787;DHT22;38661;53.152;5.846;2022-12-29T06:42:55;8.90;92.00
52787;DHT22;38661;53.152;5.846;2022-12-29T06:45:21;8.90;91.90
52787;DHT22;38661;53.152;5.846;2022-12-29T06:47:46;8.90;91.90
52787;DHT22;38661;53.152;5.846;2022-12-29T06:50:12;8.90;91.80
52787;DHT22;38661;53.152;5.846;2022-12-29T06:52:38;9.00;91.50
52787;DHT22;38661;53.152;5.846;2022-12-29T06:55:04;9.00;91.30
52787;DHT22;38661;53.152;5.846;2022-12-29T06:57:30;9.00;91.30
52787;DHT22;38661;53.152;5.846;2022-12-29T06:59:56;9.00;91.20
52787;DHT22;38661;53.152;5.846;2022-12-29T07:02:22;9.00;91.40
52787;DHT22;38661;53.152;5.846;2022-12-29T07:04:53;9.00;91.10
52787;DHT22;38661;53.152;5.846;2022-12-29T07:07:20;9.00;91.10
52787;DHT22;38661;53.152;5.846;2022-12-29T07:09:46;9.00;91.40
52787;DHT22;38661;53.152;5.846;2022-12-29T07:12:11;9.10;91.10
52787;DHT22;38661;53.152;5.846;2022-12-29T07:14:37;9.10;90.90
52787;DHT22;38661;53.152;5.846;2022-12-29T07:17:03;9.00;91.10
52787;DHT22;38661;53.152;5.846;2022-12-29T07:19:32;9.10;91.20
52787;DHT22;38661;53.152;5.846;2022-12-29T07:21:58;9.10;91.00
52787;DHT22;38661;53.152;5.846;2022-12-29T07:24:24;9.10;90.90
52787;DHT22;38661;53.152;5.846;2022-12-29T07:26:51;9.10;90.80
52787;DHT22;38661;53.152;5.846;2022-12-29T07:29:17;9.20;90.70
52787;DHT22;38661;53.152;5.846;2022-12-29T07:31:43;9.20;90.90
52787;DHT22;38661;53.152;5.846;2022-12-29T07:34:09;9.30;90.90
52787;DHT22;38661;53.152;5.846;2022-12-29T07:36:35;9.30;90.40
52787;DHT22;38661;53.152;5.846;2022-12-29T07:39:01;9.30;90.30
52787;DHT22;38661;53.152;5.846;2022-12-29T07:41:26;9.30;90.30
52787;DHT22;38661;53.152;5.846;2022-12-29T07:43:52;9.30;90.30
52787;DHT22;38661;53.152;5.846;2022-12-29T07:46:18;9.20;90.10
52787;DHT22;38661;53.152;5.846;2022-12-29T07:48:44;9.30;90.20
52787;DHT22;38661;53.152;5.846;2022-12-29T07:51:09;9.30;90.10
52787;DHT22;38661;53.152;5.846;2022-12-29T07:53:35;9.20;90.50
52787;DHT22;38661;53.152;5.846;2022-12-29T07:56:01;9.20;90.50
52787;DHT22;38661;53.152;5.846;2022-12-29T07:58:26;9.10;90.70
52787;DHT22;38661;53.152;5.846;2022-12-29T08:00:55;8.90;91.10
52787;DHT22;38661;53.152;5.846;2022-12-29T08:03:22;8.80;91.40
52787;DHT22;38661;53.152;5.846;2022-12-29T08:05:48;8.80;91.50
52787;DHT22;38661;53.152;5.846;2022-12-29T08:08:13;8.80;91.50
52787;DHT22;38661;53.152;5.846;2022-12-29T08:10:39;8.80;91.60
52787;DHT22;38661;53.152;5.846;2022-12-29T08:13:05;8.80;91.50
52787;DHT22;38661;53.152;5.846;2022-12-29T08:15:30;9.00;91.10
52787;DHT22;38661;53.152;5.846;2022-12-29T08:17:56;9.00;90.50
52787;DHT22;38661;53.152;5.846;2022-12-29T08:20:22;9.10;90.50
52787;DHT22;38661;53.152;5.846;2022-12-29T08:22:48;9.10;90.40
52787;DHT22;38661;53.152;5.846;2022-12-29T08:25:13;9.10;90.20
52787;DHT22;38661;53.152;5.846;2022-12-29T08:27:39;9.10;90.00
52787;DHT22;38661;53.152;5.846;2022-12-29T08:30:05;9.10;90.40
52787;DHT22;38661;53.152;5.846;2022-12-29T08:32:31;9.10;90.30
52787;DHT22;38661;53.152;5.846;2022-12-29T08:34:57;9.10;90.10
52787;DHT22;38661;53.152;5.846;2022-12-29T08:37:23;9.20;90.10
52787;DHT22;38661;53.152;5.846;2022-12-29T08:39:48;9.10;90.30
52787;DHT22;38661;53.152;5.846;2022-12-29T08:42:14;9.00;90.40
52787;DHT22;38661;53.152;5.846;2022-12-29T08:44:40;8.80;90.50
52787;DHT22;38661;53.152;5.846;2022-12-29T08:47:06;8.70;90.80
52787;DHT22;38661;53.152;5.846;2022-12-29T08:49:31;8.70;91.00
52787;DHT22;38661;53.152;5.846;2022-12-29T08:51:59;8.60;91.00
52787;DHT22;38661;53.152;5.846;2022-12-29T08:54:24;8.60;91.30
52787;DHT22;38661;53.152;5.846;2022-12-29T08:56:50;8.60;91.70
52787;DHT22;38661;53.152;5.846;2022-12-29T08:59:16;8.60;91.60
52787;DHT22;38661;53.152;5.846;2022-12-29T09:01:41;8.60;92.10
52787;DHT22;38661;53.152;5.846;2022-12-29T09:04:07;8.50;92.70
52787;DHT22;38661;53.152;5.846;2022-12-29T09:06:33;8.50;92.80
52787;DHT22;38661;53.152;5.846;2022-12-29T09:08:59;8.60;92.60
52787;DHT22;38661;53.152;5.846;2022-12-29T09:11:25;8.70;92.80
52787;DHT22;38661;53.152;5.846;2022-12-29T09:13:52;8.80;92.90
52787;DHT22;38661;53.152;5.846;2022-12-29T09:16:19;9.00;92.80
52787;DHT22;38661;53.152;5.846;2022-12-29T09:18:46;9.00;92.80
52787;DHT22;38661;53.152;5.846;2022-12-29T09:21:12;9.10;92.70
52787;DHT22;38661;53.152;5.846;2022-12-29T09:23:38;9.10;92.60
52787;DHT22;38661;53.152;5.846;2022-12-29T09:26:04;9.10;92.60
52787;DHT22;38661;53.152;5.846;2022-12-29T09:28:30;9.10;92.50
52787;DHT22;38661;53.152;5.846;2022-12-29T09:30:57;9.00;92.70
52787;DHT22;38661;53.152;5.846;2022-12-29T09:33:23;8.80;93.00
52787;DHT22;38661;53.152;5.846;2022-12-29T09:35:57;8.80;93.00
52787;DHT22;38661;53.152;5.846;2022-12-29T09:38:23;8.70;93.20
52787;DHT22;38661;53.152;5.846;2022-12-29T09:40:51;8.80;93.30
52787;DHT22;38661;53.152;5.846;2022-12-29T09:48:39;8.60;94.00
52787;DHT22;38661;53.152;5.846;2022-12-29T09:51:13;8.60;94.40
52787;DHT22;38661;53.152;5.846;2022-12-29T09:56:21;8.50;94.70
52787;DHT22;38661;53.152;5.846;2022-12-29T09:59:04;8.50;94.80
52787;DHT22;38661;53.152;5.846;2022-12-29T10:01:34;8.50;95.10
52787;DHT22;38661;53.152;5.846;2022-12-29T10:04:03;8.50;95.00
52787;DHT22;38661;53.152;5.846;2022-12-29T10:06:49;8.50;95.00
52787;DHT22;38661;53.152;5.846;2022-12-29T10:17:32;8.60;95.50
52787;DHT22;38661;53.152;5.846;2022-12-29T10:20:26;8.60;95.30
52787;DHT22;38661;53.152;5.846;2022-12-29T10:25:44;8.80;95.30
52787;DHT22;38661;53.152;5.846;2022-12-29T10:31:00;8.90;95.20
52787;DHT22;38661;53.152;5.846;2022-12-29T10:33:35;9.00;95.10
52787;DHT22;38661;53.152;5.846;2022-12-29T10:36:18;9.00;95.10
52787;DHT22;38661;53.152;5.846;2022-12-29T10:41:55;9.10;94.60
52787;DHT22;38661;53.152;5.846;2022-12-29T10:44:29;9.10;94.50
52787;DHT22;38661;53.152;5.846;2022-12-29T10:46:59;9.10;94.20
52787;DHT22;38661;53.152;5.846;2022-12-29T10:49:27;9.20;93.90
52787;DHT22;38661;53.152;5.846;2022-12-29T10:51:57;9.20;93.90
52787;DHT22;38661;53.152;5.846;2022-12-29T10:54:42;9.20;93.70
52787;DHT22;38661;53.152;5.846;2022-12-29T10:57:17;9.30;93.30
52787;DHT22;38661;53.152;5.846;2022-12-29T10:59:46;9.30;92.50
52787;DHT22;38661;53.152;5.846;2022-12-29T11:07:24;9.40;91.60
52787;DHT22;38661;53.152;5.846;2022-12-29T11:09:51;9.30;91.50
52787;DHT22;38661;53.152;5.846;2022-12-29T11:12:26;9.40;90.90
52787;DHT22;38661;53.152;5.846;2022-12-29T11:17:53;9.50;90.60
52787;DHT22;38661;53.152;5.846;2022-12-29T11:22:58;9.50;90.60
52787;DHT22;38661;53.152;5.846;2022-12-29T11:25:25;9.50;90.90
52787;DHT22;38661;53.152;5.846;2022-12-29T11:28:12;9.50;90.70
52787;DHT22;38661;53.152;5.846;2022-12-29T11:30:39;9.50;90.80
52787;DHT22;38661;53.152;5.846;2022-12-29T11:33:04;9.40;90.90
52787;DHT22;38661;53.152;5.846;2022-12-29T11:35:35;9.40;90.60
52787;DHT22;38661;53.152;5.846;2022-12-29T11:38:02;9.50;90.50
52787;DHT22;38661;53.152;5.846;2022-12-29T11:40:29;9.60;90.10
52787;DHT22;38661;53.152;5.846;2022-12-29T11:42:58;9.60;90.20
52787;DHT22;38661;53.152;5.846;2022-12-29T11:45:27;9.70;90.30
52787;DHT22;38661;53.152;5.846;2022-12-29T11:50:37;9.70;90.00
52787;DHT22;38661;53.152;5.846;2022-12-29T11:55:58;9.80;89.20
52787;DHT22;38661;53.152;5.846;2022-12-29T11:58:32;10.00;88.60
52787;DHT22;38661;53.152;5.846;2022-12-29T12:01:12;10.10;88.50
52787;DHT22;38661;53.152;5.846;2022-12-29T12:03:47;10.10;87.70
52787;DHT22;38661;53.152;5.846;2022-12-29T12:06:19;10.20;87.30
52787;DHT22;38661;53.152;5.846;2022-12-29T12:09:02;10.20;86.30
52787;DHT22;38661;53.152;5.846;2022-12-29T12:11:39;10.30;85.70
52787;DHT22;38661;53.152;5.846;2022-12-29T12:14:37;10.30;85.70
52787;DHT22;38661;53.152;5.846;2022-12-29T12:17:10;10.40;86.00
52787;DHT22;38661;53.152;5.846;2022-12-29T12:20:14;10.40;85.50
52787;DHT22;38661;53.152;5.846;2022-12-29T12:22:46;10.40;85.50
52787;DHT22;38661;53.152;5.846;2022-12-29T12:25:45;10.40;84.80
52787;DHT22;38661;53.152;5.846;2022-12-29T12:34:08;10.20;85.90
52787;DHT22;38661;53.152;5.846;2022-12-29T12:36:49;10.30;85.90
52787;DHT22;38661;53.152;5.846;2022-12-29T12:39:49;10.40;85.70
52787;DHT22;38661;53.152;5.846;2022-12-29T12:50:16;9.80;86.20
52787;DHT22;38661;53.152;5.846;2022-12-29T12:58:49;9.50;87.60
52787;DHT22;38661;53.152;5.846;2022-12-29T13:07:13;9.50;87.90
52787;DHT22;38661;53.152;5.846;2022-12-29T13:17:46;9.30;88.10
52787;DHT22;38661;53.152;5.846;2022-12-29T13:25:47;9.30;88.50
52787;DHT22;38661;53.152;5.846;2022-12-29T13:31:15;9.20;89.00
52787;DHT22;38661;53.152;5.846;2022-12-29T13:34:21;9.10;89.00
52787;DHT22;38661;53.152;5.846;2022-12-29T13:36:56;9.10;89.10
52787;DHT22;38661;53.152;5.846;2022-12-29T13:39:37;9.10;89.30
52787;DHT22;38661;53.152;5.846;2022-12-29T13:42:04;9.20;89.40
52787;DHT22;38661;53.152;5.846;2022-12-29T13:44:37;9.30;89.10
52787;DHT22;38661;53.152;5.846;2022-12-29T13:49:59;9.40;88.60
52787;DHT22;38661;53.152;5.846;2022-12-29T13:55:36;9.50;88.20
52787;DHT22;38661;53.152;5.846;2022-12-29T14:00:58;9.50;87.60
52787;DHT22;38661;53.152;5.846;2022-12-29T14:06:28;9.20;88.00
52787;DHT22;38661;53.152;5.846;2022-12-29T14:09:04;9.20;88.00
52787;DHT22;38661;53.152;5.846;2022-12-29T14:11:33;9.20;88.00
52787;DHT22;38661;53.152;5.846;2022-12-29T14:14:20;9.10;88.00
52787;DHT22;38661;53.152;5.846;2022-12-29T14:16:47;9.00;88.20
52787;DHT22;38661;53.152;5.846;2022-12-29T14:19:22;8.90;88.60
52787;DHT22;38661;53.152;5.846;2022-12-29T14:22:03;8.90;88.60
52787;DHT22;38661;53.152;5.846;2022-12-29T14:26:58;8.70;89.40
52787;DHT22;38661;53.152;5.846;2022-12-29T14:31:51;8.70;89.40
52787;DHT22;38661;53.152;5.846;2022-12-29T14:36:55;8.70;89.50
52787;DHT22;38661;53.152;5.846;2022-12-29T14:39:38;8.60;89.40
52787;DHT22;38661;53.152;5.846;2022-12-29T14:44:30;8.50;90.00
52787;DHT22;38661;53.152;5.846;2022-12-29T14:46:59;8.50;89.80
52787;DHT22;38661;53.152;5.846;2022-12-29T14:49:31;8.50;90.30
52787;DHT22;38661;53.152;5.846;2022-12-29T14:52:07;8.50;90.10
52787;DHT22;38661;53.152;5.846;2022-12-29T14:54:41;8.50;90.40
52787;DHT22;38661;53.152;5.846;2022-12-29T14:57:14;8.60;90.40
52787;DHT22;38661;53.152;5.846;2022-12-29T14:59:43;8.60;90.20
52787;DHT22;38661;53.152;5.846;2022-12-29T15:02:19;8.60;90.20
52787;DHT22;38661;53.152;5.846;2022-12-29T15:04:47;8.50;90.30
52787;DHT22;38661;53.152;5.846;2022-12-29T15:07:13;8.50;90.60
52787;DHT22;38661;53.152;5.846;2022-12-29T15:09:45;8.50;90.70
52787;DHT22;38661;53.152;5.846;2022-12-29T15:15:00;8.50;90.80
52787;DHT22;38661;53.152;5.846;2022-12-29T15:17:31;8.50;90.70
52787;DHT22;38661;53.152;5.846;2022-12-29T15:20:44;8.50;91.00
52787;DHT22;38661;53.152;5.846;2022-12-29T15:22:48;8.50;90.90
52787;DHT22;38661;53.152;5.846;2022-12-29T15:25:16;8.40;91.10
52787;DHT22;38661;53.152;5.846;2022-12-29T15:27:51;8.40;91.20
52787;DHT22;38661;53.152;5.846;2022-12-29T15:30:18;8.40;91.10
52787;DHT22;38661;53.152;5.846;2022-12-29T15:32:46;8.50;91.10
52787;DHT22;38661;53.152;5.846;2022-12-29T15:37:47;8.40;91.20
52787;DHT22;38661;53.152;5.846;2022-12-29T15:40:30;8.40;91.70
52787;DHT22;38661;53.152;5.846;2022-12-29T15:43:35;8.40;92.00
52787;DHT22;38661;53.152;5.846;2022-12-29T15:46:03;8.50;92.00
52787;DHT22;38661;53.152;5.846;2022-12-29T15:48:30;8.50;91.90
52787;DHT22;38661;53.152;5.846;2022-12-29T15:50:57;8.30;92.60
52787;DHT22;38661;53.152;5.846;2022-12-29T15:53:32;8.10;92.90
52787;DHT22;38661;53.152;5.846;2022-12-29T15:56:07;8.10;92.40
52787;DHT22;38661;53.152;5.846;2022-12-29T15:58:50;7.90;92.40
52787;DHT22;38661;53.152;5.846;2022-12-29T16:01:19;7.80;92.00
52787;DHT22;38661;53.152;5.846;2022-12-29T16:03:46;7.70;92.30
52787;DHT22;38661;53.152;5.846;2022-12-29T16:06:38;7.70;92.20
52787;DHT22;38661;53.152;5.846;2022-12-29T16:09:07;7.60;92.40
52787;DHT22;38661;53.152;5.846;2022-12-29T16:11:38;7.60;92.50
52787;DHT22;38661;53.152;5.846;2022-12-29T16:14:25;7.50;92.80
52787;DHT22;38661;53.152;5.846;2022-12-29T16:16:52;7.40;92.80
52787;DHT22;38661;53.152;5.846;2022-12-29T16:19:35;7.40;92.90
52787;DHT22;38661;53.152;5.846;2022-12-29T16:22:03;7.40;93.10
52787;DHT22;38661;53.152;5.846;2022-12-29T16:24:37;7.40;93.10
52787;DHT22;38661;53.152;5.846;2022-12-29T16:27:21;7.50;93.20
52787;DHT22;38661;53.152;5.846;2022-12-29T16:29:53;7.40;93.40
52787;DHT22;38661;53.152;5.846;2022-12-29T16:32:25;7.40;93.30
52787;DHT22;38661;53.152;5.846;2022-12-29T16:35:05;7.40;93.80
52787;DHT22;38661;53.152;5.846;2022-12-29T16:37:35;7.50;93.80
52787;DHT22;38661;53.152;5.846;2022-12-29T16:42:55;7.50;93.90
52787;DHT22;38661;53.152;5.846;2022-12-29T16:45:34;7.60;94.20
52787;DHT22;38661;53.152;5.846;2022-12-29T16:50:34;7.60;94.20
52787;DHT22;38661;53.152;5.846;2022-12-29T16:53:01;7.60;94.30
52787;DHT22;38661;53.152;5.846;2022-12-29T16:55:28;7.60;94.40
52787;DHT22;38661;53.152;5.846;2022-12-29T16:57:55;7.60;94.30
52787;DHT22;38661;53.152;5.846;2022-12-29T17:00:33;7.60;94.70
52787;DHT22;38661;53.152;5.846;2022-12-29T17:03:00;7.60;94.80
52787;DHT22;38661;53.152;5.846;2022-12-29T17:05:26;7.80;95.10
52787;DHT22;38661;53.152;5.846;2022-12-29T17:07:52;7.80;95.00
52787;DHT22;38661;53.152;5.846;2022-12-29T17:10:18;7.80;95.10
52787;DHT22;38661;53.152;5.846;2022-12-29T17:12:47;7.90;94.80
52787;DHT22;38661;53.152;5.846;2022-12-29T17:15:26;7.80;94.70
52787;DHT22;38661;53.152;5.846;2022-12-29T17:17:59;7.90;94.80
52787;DHT22;38661;53.152;5.846;2022-12-29T17:20:31;7.90;94.70
52787;DHT22;38661;53.152;5.846;2022-12-29T17:22:57;7.90;94.60
52787;DHT22;38661;53.152;5.846;2022-12-29T17:25:32;8.00;94.50
52787;DHT22;38661;53.152;5.846;2022-12-29T17:28:01;8.00;94.40
52787;DHT22;38661;53.152;5.846;2022-12-29T17:30:29;8.10;94.10
52787;DHT22;38661;53.152;5.846;2022-12-29T17:33:00;8.00;93.90
52787;DHT22;38661;53.152;5.846;2022-12-29T17:35:27;8.00;93.80
52787;DHT22;38661;53.152;5.846;2022-12-29T17:37:56;8.00;93.80
52787;DHT22;38661;53.152;5.846;2022-12-29T17:40:29;8.00;93.70
52787;DHT22;38661;53.152;5.846;2022-12-29T17:42:57;8.00;93.50
52787;DHT22;38661;53.152;5.846;2022-12-29T17:45:25;8.00;93.20
52787;DHT22;38661;53.152;5.846;2022-12-29T17:47:51;8.00;93.30
52787;DHT22;38661;53.152;5.846;2022-12-29T17:50:23;8.00;93.30
52787;DHT22;38661;53.152;5.846;2022-12-29T17:52:57;7.90;93.20
52787;DHT22;38661;53.152;5.846;2022-12-29T17:55:24;7.90;93.10
52787;DHT22;38661;53.152;5.846;2022-12-29T17:57:51;7.90;93.10
52787;DHT22;38661;53.152;5.846;2022-12-29T18:00:19;7.90;93.00
52787;DHT22;38661;53.152;5.846;2022-12-29T18:02:45;7.90;92.80
52787;DHT22;38661;53.152;5.846;2022-12-29T18:05:18;7.80;93.00
52787;DHT22;38661;53.152;5.846;2022-12-29T18:07:44;7.80;92.90
52787;DHT22;38661;53.152;5.846;2022-12-29T18:10:10;7.80;92.70
52787;DHT22;38661;53.152;5.846;2022-12-29T18:12:41;7.80;92.50
52787;DHT22;38661;53.152;5.846;2022-12-29T18:15:26;7.80;92.00
52787;DHT22;38661;53.152;5.846;2022-12-29T18:18:13;7.70;92.20
52787;DHT22;38661;53.152;5.846;2022-12-29T18:20:40;7.70;92.10
52787;DHT22;38661;53.152;5.846;2022-12-29T18:23:29;7.70;92.00
52787;DHT22;38661;53.152;5.846;2022-12-29T18:26:06;7.70;92.00
52787;DHT22;38661;53.152;5.846;2022-12-29T18:28:35;7.80;91.70
52787;DHT22;38661;53.152;5.846;2022-12-29T18:31:01;7.70;91.60